Ana Sayfa
METAR-TAF:

METAR-TAF

Havaalanları :

South Jersey Regional Airport

Mount Holly, New Jersey, Amerika Birleşik Devletleri

Enlem: 39-56-26N, Boylam: 074-50-28W, yükseklik: 16 m

Güncel hava durumu gözlemi

Rapor saat 19:54 UTC de 57 dakika önce yapıldı.
Rüzgar doğudan 9 kt ve 17 kt'a kadar ani rüzgarlar, kuzeydoğu ve doğu arasında değişken
Sıcaklık 6°C
Nem 24%
Basınç 1029 hPa
Görüş mesafesi: 16.1 km
Açık gökyüzü

METAR: KVAY 161954Z AUTO 08009G17KT 040V100 10SM CLR 06/M13 A3040 RMK AO2 SLP295 T00561128

Saat: 15:51 (20:51 UTC)


TAF: eksik

4.000'den fazla havaalanı için hava durumu gözlemleri ve tahminleri (METAR ve TAF raporları).

Kullanılabilir istasyonlar harita üzerinde sarı ve kırmızı noktalarla gösterilir.

İstasyonun adını görmek için fareyi noktanın üzerinde gezdirin.

Sonrasında hava gözlem ve tahminlerini görmek için tıklayın.

Haritayı değiştirmek için: yaklaştırmak için siyah artı işaretli yeşil düğmeye ve uzaklaştırmak için de eksi işaretli düğmeye hızla tıklayın; bitişik haritalar için yeşil okları kullanın.


METAR-TAF: